sensor_id;sensor_type;location;lat;lon;timestamp;temperature;humidity
1716;DHT22;855;48.824;9.220;2023-05-07T00:00:41;15.90;90.30
1716;DHT22;855;48.824;9.220;2023-05-07T00:03:09;16.00;90.10
1716;DHT22;855;48.824;9.220;2023-05-07T00:05:38;16.00;90.10
1716;DHT22;855;48.824;9.220;2023-05-07T00:08:05;15.90;90.10
1716;DHT22;855;48.824;9.220;2023-05-07T00:10:33;15.90;90.10
1716;DHT22;855;48.824;9.220;2023-05-07T00:13:00;15.90;90.20
1716;DHT22;855;48.824;9.220;2023-05-07T00:15:27;16.00;90.20
1716;DHT22;855;48.824;9.220;2023-05-07T00:17:53;16.00;90.10
1716;DHT22;855;48.824;9.220;2023-05-07T00:20:20;16.10;89.50
1716;DHT22;855;48.824;9.220;2023-05-07T00:22:48;16.00;89.40
1716;DHT22;855;48.824;9.220;2023-05-07T00:25:15;15.90;89.90
1716;DHT22;855;48.824;9.220;2023-05-07T00:27:45;15.80;90.30
1716;DHT22;855;48.824;9.220;2023-05-07T00:30:12;15.80;90.40
1716;DHT22;855;48.824;9.220;2023-05-07T00:32:40;15.80;90.50
1716;DHT22;855;48.824;9.220;2023-05-07T00:35:08;15.90;90.40
1716;DHT22;855;48.824;9.220;2023-05-07T00:37:34;15.90;90.20
1716;DHT22;855;48.824;9.220;2023-05-07T00:40:03;15.90;90.10
1716;DHT22;855;48.824;9.220;2023-05-07T00:42:32;15.80;90.30
1716;DHT22;855;48.824;9.220;2023-05-07T00:44:59;15.80;90.40
1716;DHT22;855;48.824;9.220;2023-05-07T00:47:26;15.80;90.40
1716;DHT22;855;48.824;9.220;2023-05-07T00:49:53;15.80;90.60
1716;DHT22;855;48.824;9.220;2023-05-07T00:52:21;15.80;90.70
1716;DHT22;855;48.824;9.220;2023-05-07T00:54:50;15.80;90.50
1716;DHT22;855;48.824;9.220;2023-05-07T00:57:20;15.80;90.20
1716;DHT22;855;48.824;9.220;2023-05-07T00:59:48;15.90;90.10
1716;DHT22;855;48.824;9.220;2023-05-07T01:02:18;15.80;90.30
1716;DHT22;855;48.824;9.220;2023-05-07T01:05:00;15.80;90.40
1716;DHT22;855;48.824;9.220;2023-05-07T01:07:27;15.70;90.50
1716;DHT22;855;48.824;9.220;2023-05-07T01:09:55;15.50;90.90
1716;DHT22;855;48.824;9.220;2023-05-07T01:12:24;15.50;91.10
1716;DHT22;855;48.824;9.220;2023-05-07T01:14:51;15.50;91.00
1716;DHT22;855;48.824;9.220;2023-05-07T01:17:18;15.60;91.20
1716;DHT22;855;48.824;9.220;2023-05-07T01:19:46;15.60;91.20
1716;DHT22;855;48.824;9.220;2023-05-07T01:22:15;15.50;91.10
1716;DHT22;855;48.824;9.220;2023-05-07T01:24:44;15.40;91.30
1716;DHT22;855;48.824;9.220;2023-05-07T01:27:11;15.30;91.70
1716;DHT22;855;48.824;9.220;2023-05-07T01:29:38;15.20;92.10
1716;DHT22;855;48.824;9.220;2023-05-07T01:32:05;15.30;92.10
1716;DHT22;855;48.824;9.220;2023-05-07T01:34:34;15.40;91.70
1716;DHT22;855;48.824;9.220;2023-05-07T01:37:03;15.20;91.50
1716;DHT22;855;48.824;9.220;2023-05-07T01:39:30;15.00;91.90
1716;DHT22;855;48.824;9.220;2023-05-07T01:41:59;15.10;92.20
1716;DHT22;855;48.824;9.220;2023-05-07T01:44:26;15.20;92.10
1716;DHT22;855;48.824;9.220;2023-05-07T01:46:54;15.20;92.20
1716;DHT22;855;48.824;9.220;2023-05-07T01:49:21;15.20;92.40
1716;DHT22;855;48.824;9.220;2023-05-07T01:51:48;15.20;92.20
1716;DHT22;855;48.824;9.220;2023-05-07T01:54:15;15.00;92.20
1716;DHT22;855;48.824;9.220;2023-05-07T01:56:42;15.00;92.40
1716;DHT22;855;48.824;9.220;2023-05-07T01:59:11;15.00;92.50
1716;DHT22;855;48.824;9.220;2023-05-07T02:01:39;15.00;92.70
1716;DHT22;855;48.824;9.220;2023-05-07T02:04:05;15.00;92.80
1716;DHT22;855;48.824;9.220;2023-05-07T02:06:33;15.00;92.70
1716;DHT22;855;48.824;9.220;2023-05-07T02:08:59;15.00;92.40
1716;DHT22;855;48.824;9.220;2023-05-07T02:11:26;15.00;92.10
1716;DHT22;855;48.824;9.220;2023-05-07T02:13:54;14.80;92.20
1716;DHT22;855;48.824;9.220;2023-05-07T02:16:22;14.90;92.20
1716;DHT22;855;48.824;9.220;2023-05-07T02:18:49;15.00;92.00
1716;DHT22;855;48.824;9.220;2023-05-07T02:21:16;15.10;91.80
1716;DHT22;855;48.824;9.220;2023-05-07T02:23:43;15.10;91.70
1716;DHT22;855;48.824;9.220;2023-05-07T02:26:10;15.20;91.60
1716;DHT22;855;48.824;9.220;2023-05-07T02:28:37;15.30;91.50
1716;DHT22;855;48.824;9.220;2023-05-07T02:31:04;15.30;91.50
1716;DHT22;855;48.824;9.220;2023-05-07T02:33:33;15.40;91.30
1716;DHT22;855;48.824;9.220;2023-05-07T02:36:05;15.50;91.20
1716;DHT22;855;48.824;9.220;2023-05-07T02:38:33;15.50;91.10
1716;DHT22;855;48.824;9.220;2023-05-07T02:41:00;15.50;90.90
1716;DHT22;855;48.824;9.220;2023-05-07T02:43:27;15.40;90.90
1716;DHT22;855;48.824;9.220;2023-05-07T02:46:00;15.40;90.90
1716;DHT22;855;48.824;9.220;2023-05-07T02:48:28;15.40;90.90
1716;DHT22;855;48.824;9.220;2023-05-07T02:50:56;15.40;90.90
1716;DHT22;855;48.824;9.220;2023-05-07T02:53:23;15.40;90.90
1716;DHT22;855;48.824;9.220;2023-05-07T02:55:51;15.30;91.00
1716;DHT22;855;48.824;9.220;2023-05-07T02:58:18;15.30;91.10
1716;DHT22;855;48.824;9.220;2023-05-07T03:00:45;15.20;91.40
1716;DHT22;855;48.824;9.220;2023-05-07T03:03:12;15.00;91.90
1716;DHT22;855;48.824;9.220;2023-05-07T03:05:39;15.00;92.20
1716;DHT22;855;48.824;9.220;2023-05-07T03:08:09;15.00;92.00
1716;DHT22;855;48.824;9.220;2023-05-07T03:10:37;15.10;91.80
1716;DHT22;855;48.824;9.220;2023-05-07T03:13:04;15.00;91.50
1716;DHT22;855;48.824;9.220;2023-05-07T03:15:31;15.00;91.60
1716;DHT22;855;48.824;9.220;2023-05-07T03:17:58;15.00;91.70
1716;DHT22;855;48.824;9.220;2023-05-07T03:20:24;15.00;91.90
1716;DHT22;855;48.824;9.220;2023-05-07T03:22:51;15.00;91.70
1716;DHT22;855;48.824;9.220;2023-05-07T03:25:20;15.00;91.70
1716;DHT22;855;48.824;9.220;2023-05-07T03:27:47;14.90;91.30
1716;DHT22;855;48.824;9.220;2023-05-07T03:30:14;14.70;91.60
1716;DHT22;855;48.824;9.220;2023-05-07T03:32:41;14.40;92.00
1716;DHT22;855;48.824;9.220;2023-05-07T03:35:08;14.30;92.30
1716;DHT22;855;48.824;9.220;2023-05-07T03:37:35;14.20;92.60
1716;DHT22;855;48.824;9.220;2023-05-07T03:40:02;14.10;92.80
1716;DHT22;855;48.824;9.220;2023-05-07T03:42:31;14.20;93.00
1716;DHT22;855;48.824;9.220;2023-05-07T03:44:58;14.20;93.00
1716;DHT22;855;48.824;9.220;2023-05-07T03:47:25;14.30;92.90
1716;DHT22;855;48.824;9.220;2023-05-07T03:49:52;14.30;92.80
1716;DHT22;855;48.824;9.220;2023-05-07T03:52:20;14.40;92.90
1716;DHT22;855;48.824;9.220;2023-05-07T03:54:51;14.40;92.60
1716;DHT22;855;48.824;9.220;2023-05-07T03:57:18;14.50;92.20
1716;DHT22;855;48.824;9.220;2023-05-07T03:59:47;14.50;92.10
1716;DHT22;855;48.824;9.220;2023-05-07T04:02:14;14.60;91.90
1716;DHT22;855;48.824;9.220;2023-05-07T04:04:40;14.50;91.90
1716;DHT22;855;48.824;9.220;2023-05-07T04:07:07;14.50;91.90
1716;DHT22;855;48.824;9.220;2023-05-07T04:09:35;14.40;92.00
1716;DHT22;855;48.824;9.220;2023-05-07T04:12:03;14.40;92.10
1716;DHT22;855;48.824;9.220;2023-05-07T04:14:29;14.30;92.40
1716;DHT22;855;48.824;9.220;2023-05-07T04:16:59;14.30;92.50
1716;DHT22;855;48.824;9.220;2023-05-07T04:19:26;14.30;92.70
1716;DHT22;855;48.824;9.220;2023-05-07T04:21:54;14.30;93.00
1716;DHT22;855;48.824;9.220;2023-05-07T04:24:21;14.30;93.20
1716;DHT22;855;48.824;9.220;2023-05-07T04:26:47;14.40;93.20
1716;DHT22;855;48.824;9.220;2023-05-07T04:29:14;14.40;93.00
1716;DHT22;855;48.824;9.220;2023-05-07T04:31:42;14.50;93.00
1716;DHT22;855;48.824;9.220;2023-05-07T04:34:11;14.60;92.70
1716;DHT22;855;48.824;9.220;2023-05-07T04:36:38;14.50;92.30
1716;DHT22;855;48.824;9.220;2023-05-07T04:39:05;14.60;92.10
1716;DHT22;855;48.824;9.220;2023-05-07T04:41:32;14.60;92.20
1716;DHT22;855;48.824;9.220;2023-05-07T04:43:59;14.70;92.40
1716;DHT22;855;48.824;9.220;2023-05-07T04:46:27;14.70;92.60
1716;DHT22;855;48.824;9.220;2023-05-07T04:48:54;14.80;92.40
1716;DHT22;855;48.824;9.220;2023-05-07T04:51:22;14.90;92.30
1716;DHT22;855;48.824;9.220;2023-05-07T04:53:49;15.10;91.90
1716;DHT22;855;48.824;9.220;2023-05-07T04:56:16;15.10;91.60
1716;DHT22;855;48.824;9.220;2023-05-07T04:58:43;15.10;91.20
1716;DHT22;855;48.824;9.220;2023-05-07T05:01:11;15.00;91.20
1716;DHT22;855;48.824;9.220;2023-05-07T05:03:38;14.90;91.40
1716;DHT22;855;48.824;9.220;2023-05-07T05:06:06;15.00;91.60
1716;DHT22;855;48.824;9.220;2023-05-07T05:08:35;15.10;91.60
1716;DHT22;855;48.824;9.220;2023-05-07T05:11:02;15.20;91.60
1716;DHT22;855;48.824;9.220;2023-05-07T05:13:29;15.30;91.40
1716;DHT22;855;48.824;9.220;2023-05-07T05:15:56;15.40;91.10
1716;DHT22;855;48.824;9.220;2023-05-07T05:18:23;15.50;91.10
1716;DHT22;855;48.824;9.220;2023-05-07T05:20:51;15.50;90.90
1716;DHT22;855;48.824;9.220;2023-05-07T05:23:18;15.60;90.90
1716;DHT22;855;48.824;9.220;2023-05-07T05:25:46;15.60;90.90
1716;DHT22;855;48.824;9.220;2023-05-07T05:28:13;15.70;91.00
1716;DHT22;855;48.824;9.220;2023-05-07T05:30:40;15.70;90.60
1716;DHT22;855;48.824;9.220;2023-05-07T05:33:07;15.60;90.10
1716;DHT22;855;48.824;9.220;2023-05-07T05:35:34;15.60;90.90
1716;DHT22;855;48.824;9.220;2023-05-07T05:38:01;15.80;91.30
1716;DHT22;855;48.824;9.220;2023-05-07T05:40:27;16.10;90.70
1716;DHT22;855;48.824;9.220;2023-05-07T05:42:56;16.30;89.90
1716;DHT22;855;48.824;9.220;2023-05-07T05:45:23;16.60;88.70
1716;DHT22;855;48.824;9.220;2023-05-07T05:47:52;16.90;86.40
1716;DHT22;855;48.824;9.220;2023-05-07T05:50:19;17.30;84.60
1716;DHT22;855;48.824;9.220;2023-05-07T05:52:46;17.60;83.40
1716;DHT22;855;48.824;9.220;2023-05-07T05:55:13;17.70;81.70
1716;DHT22;855;48.824;9.220;2023-05-07T05:57:40;17.90;80.50
1716;DHT22;855;48.824;9.220;2023-05-07T06:00:10;18.20;79.70
1716;DHT22;855;48.824;9.220;2023-05-07T06:02:37;18.50;79.20
1716;DHT22;855;48.824;9.220;2023-05-07T06:05:05;18.80;77.90
1716;DHT22;855;48.824;9.220;2023-05-07T06:07:32;19.00;77.00
1716;DHT22;855;48.824;9.220;2023-05-07T06:09:58;19.30;76.00
1716;DHT22;855;48.824;9.220;2023-05-07T06:12:25;19.50;75.40
1716;DHT22;855;48.824;9.220;2023-05-07T06:14:52;19.30;74.70
1716;DHT22;855;48.824;9.220;2023-05-07T06:17:20;19.30;74.60
1716;DHT22;855;48.824;9.220;2023-05-07T06:19:47;19.30;74.90
1716;DHT22;855;48.824;9.220;2023-05-07T06:22:14;19.30;74.70
1716;DHT22;855;48.824;9.220;2023-05-07T06:24:41;19.40;74.70
1716;DHT22;855;48.824;9.220;2023-05-07T06:27:08;19.60;73.50
1716;DHT22;855;48.824;9.220;2023-05-07T06:29:35;19.50;73.90
1716;DHT22;855;48.824;9.220;2023-05-07T06:32:12;19.50;73.70
1716;DHT22;855;48.824;9.220;2023-05-07T06:34:41;19.60;73.40
1716;DHT22;855;48.824;9.220;2023-05-07T06:37:08;19.60;73.10
1716;DHT22;855;48.824;9.220;2023-05-07T06:39:35;19.70;72.90
1716;DHT22;855;48.824;9.220;2023-05-07T06:42:02;19.70;72.30
1716;DHT22;855;48.824;9.220;2023-05-07T06:44:30;19.80;72.50
1716;DHT22;855;48.824;9.220;2023-05-07T06:46:57;19.70;73.10
1716;DHT22;855;48.824;9.220;2023-05-07T06:49:24;19.70;73.30
1716;DHT22;855;48.824;9.220;2023-05-07T06:51:52;19.90;72.60
1716;DHT22;855;48.824;9.220;2023-05-07T06:54:20;20.20;72.60
1716;DHT22;855;48.824;9.220;2023-05-07T06:56:47;20.20;71.20
1716;DHT22;855;48.824;9.220;2023-05-07T06:59:14;20.30;70.60
1716;DHT22;855;48.824;9.220;2023-05-07T07:01:41;20.60;70.20
1716;DHT22;855;48.824;9.220;2023-05-07T07:04:08;20.80;70.40
1716;DHT22;855;48.824;9.220;2023-05-07T07:06:34;20.90;68.90
1716;DHT22;855;48.824;9.220;2023-05-07T07:09:03;21.10;68.80
1716;DHT22;855;48.824;9.220;2023-05-07T07:11:30;21.20;68.90
1716;DHT22;855;48.824;9.220;2023-05-07T07:13:57;21.10;68.50
1716;DHT22;855;48.824;9.220;2023-05-07T07:16:24;20.90;70.50
1716;DHT22;855;48.824;9.220;2023-05-07T07:18:51;21.20;69.70
1716;DHT22;855;48.824;9.220;2023-05-07T07:21:18;21.20;66.50
1716;DHT22;855;48.824;9.220;2023-05-07T07:23:45;21.20;68.10
1716;DHT22;855;48.824;9.220;2023-05-07T07:26:18;21.50;66.90
1716;DHT22;855;48.824;9.220;2023-05-07T07:28:45;21.60;64.70
1716;DHT22;855;48.824;9.220;2023-05-07T07:31:12;21.70;64.50
1716;DHT22;855;48.824;9.220;2023-05-07T07:33:39;21.70;65.20
1716;DHT22;855;48.824;9.220;2023-05-07T07:36:06;21.70;66.00
1716;DHT22;855;48.824;9.220;2023-05-07T07:38:33;21.90;64.50
1716;DHT22;855;48.824;9.220;2023-05-07T07:41:01;21.90;64.90
1716;DHT22;855;48.824;9.220;2023-05-07T07:43:29;22.00;64.20
1716;DHT22;855;48.824;9.220;2023-05-07T07:45:56;22.30;63.40
1716;DHT22;855;48.824;9.220;2023-05-07T07:48:22;22.30;63.90
1716;DHT22;855;48.824;9.220;2023-05-07T07:50:50;22.10;64.00
1716;DHT22;855;48.824;9.220;2023-05-07T07:53:17;22.00;63.80
1716;DHT22;855;48.824;9.220;2023-05-07T07:55:44;22.00;64.50
1716;DHT22;855;48.824;9.220;2023-05-07T07:58:11;21.90;64.40
1716;DHT22;855;48.824;9.220;2023-05-07T08:00:39;22.00;64.80
1716;DHT22;855;48.824;9.220;2023-05-07T08:03:06;22.00;64.40
1716;DHT22;855;48.824;9.220;2023-05-07T08:05:35;22.10;63.60
1716;DHT22;855;48.824;9.220;2023-05-07T08:08:02;22.20;64.00
1716;DHT22;855;48.824;9.220;2023-05-07T08:10:29;22.50;63.60
1716;DHT22;855;48.824;9.220;2023-05-07T08:12:59;22.70;62.60
1716;DHT22;855;48.824;9.220;2023-05-07T08:15:26;22.90;62.80
1716;DHT22;855;48.824;9.220;2023-05-07T08:17:54;23.00;62.60
1716;DHT22;855;48.824;9.220;2023-05-07T08:20:22;23.00;61.80
1716;DHT22;855;48.824;9.220;2023-05-07T08:22:49;23.20;61.20
1716;DHT22;855;48.824;9.220;2023-05-07T08:25:16;23.20;61.40
1716;DHT22;855;48.824;9.220;2023-05-07T08:27:43;23.30;60.70
1716;DHT22;855;48.824;9.220;2023-05-07T08:30:11;23.30;61.50
1716;DHT22;855;48.824;9.220;2023-05-07T08:32:38;23.60;60.80
1716;DHT22;855;48.824;9.220;2023-05-07T08:35:07;23.80;60.20
1716;DHT22;855;48.824;9.220;2023-05-07T08:37:34;24.00;60.20
1716;DHT22;855;48.824;9.220;2023-05-07T08:40:01;23.80;60.00
1716;DHT22;855;48.824;9.220;2023-05-07T08:42:28;23.50;61.20
1716;DHT22;855;48.824;9.220;2023-05-07T08:44:57;23.30;61.50
1716;DHT22;855;48.824;9.220;2023-05-07T08:47:34;23.30;62.70
1716;DHT22;855;48.824;9.220;2023-05-07T08:50:07;23.10;62.20
1716;DHT22;855;48.824;9.220;2023-05-07T08:52:35;23.00;62.40
1716;DHT22;855;48.824;9.220;2023-05-07T08:55:03;22.70;63.20
1716;DHT22;855;48.824;9.220;2023-05-07T08:57:30;22.80;64.70
1716;DHT22;855;48.824;9.220;2023-05-07T08:59:57;23.10;63.20
1716;DHT22;855;48.824;9.220;2023-05-07T09:02:24;23.40;63.40
1716;DHT22;855;48.824;9.220;2023-05-07T09:04:50;23.70;62.70
1716;DHT22;855;48.824;9.220;2023-05-07T09:07:20;23.70;61.50
1716;DHT22;855;48.824;9.220;2023-05-07T09:09:47;23.90;60.80
1716;DHT22;855;48.824;9.220;2023-05-07T09:12:13;24.20;60.60
1716;DHT22;855;48.824;9.220;2023-05-07T09:14:40;24.10;60.20
1716;DHT22;855;48.824;9.220;2023-05-07T09:17:07;24.20;60.10
1716;DHT22;855;48.824;9.220;2023-05-07T09:19:34;24.40;59.30
1716;DHT22;855;48.824;9.220;2023-05-07T09:22:01;24.80;57.90
1716;DHT22;855;48.824;9.220;2023-05-07T09:24:30;25.10;56.70
1716;DHT22;855;48.824;9.220;2023-05-07T09:27:00;25.20;57.40
1716;DHT22;855;48.824;9.220;2023-05-07T09:29:28;25.40;56.40
1716;DHT22;855;48.824;9.220;2023-05-07T09:31:55;25.60;57.30
1716;DHT22;855;48.824;9.220;2023-05-07T09:34:22;25.80;57.20
1716;DHT22;855;48.824;9.220;2023-05-07T09:36:49;26.00;55.30
1716;DHT22;855;48.824;9.220;2023-05-07T09:39:16;26.10;55.90
1716;DHT22;855;48.824;9.220;2023-05-07T09:41:45;26.30;55.40
1716;DHT22;855;48.824;9.220;2023-05-07T09:44:12;26.20;53.40
1716;DHT22;855;48.824;9.220;2023-05-07T09:46:42;26.20;54.30
1716;DHT22;855;48.824;9.220;2023-05-07T09:49:14;26.40;54.20
1716;DHT22;855;48.824;9.220;2023-05-07T09:51:47;26.60;52.20
1716;DHT22;855;48.824;9.220;2023-05-07T09:54:15;26.60;52.60
1716;DHT22;855;48.824;9.220;2023-05-07T09:56:43;26.50;53.90
1716;DHT22;855;48.824;9.220;2023-05-07T09:59:13;26.60;55.00
1716;DHT22;855;48.824;9.220;2023-05-07T10:01:42;26.80;54.90
1716;DHT22;855;48.824;9.220;2023-05-07T10:04:10;26.90;53.80
1716;DHT22;855;48.824;9.220;2023-05-07T10:06:37;26.90;51.40
1716;DHT22;855;48.824;9.220;2023-05-07T10:09:05;27.00;51.70
1716;DHT22;855;48.824;9.220;2023-05-07T10:11:34;27.30;52.60
1716;DHT22;855;48.824;9.220;2023-05-07T10:14:01;27.40;50.70
1716;DHT22;855;48.824;9.220;2023-05-07T10:16:31;27.60;50.90
1716;DHT22;855;48.824;9.220;2023-05-07T10:19:02;27.40;49.90
1716;DHT22;855;48.824;9.220;2023-05-07T10:21:29;27.20;50.30
1716;DHT22;855;48.824;9.220;2023-05-07T10:23:58;27.10;49.90
1716;DHT22;855;48.824;9.220;2023-05-07T10:26:27;27.30;50.20
1716;DHT22;855;48.824;9.220;2023-05-07T10:28:59;27.40;49.90
1716;DHT22;855;48.824;9.220;2023-05-07T10:31:45;27.70;52.10
1716;DHT22;855;48.824;9.220;2023-05-07T10:34:28;27.90;50.70
1716;DHT22;855;48.824;9.220;2023-05-07T10:36:56;28.10;48.20
1716;DHT22;855;48.824;9.220;2023-05-07T10:39:23;28.20;48.90
1716;DHT22;855;48.824;9.220;2023-05-07T10:41:51;28.30;47.80
1716;DHT22;855;48.824;9.220;2023-05-07T10:44:28;28.40;48.40
1716;DHT22;855;48.824;9.220;2023-05-07T10:47:06;28.30;46.80
1716;DHT22;855;48.824;9.220;2023-05-07T10:49:35;28.00;46.80
1716;DHT22;855;48.824;9.220;2023-05-07T10:52:12;28.10;47.20
1716;DHT22;855;48.824;9.220;2023-05-07T10:54:39;28.10;47.20
1716;DHT22;855;48.824;9.220;2023-05-07T10:57:34;27.90;48.20
1716;DHT22;855;48.824;9.220;2023-05-07T11:00:02;27.70;49.20
1716;DHT22;855;48.824;9.220;2023-05-07T11:05:33;26.80;50.80
1716;DHT22;855;48.824;9.220;2023-05-07T11:08:01;26.50;52.20
1716;DHT22;855;48.824;9.220;2023-05-07T11:10:52;26.50;52.30
1716;DHT22;855;48.824;9.220;2023-05-07T11:13:42;26.20;52.80
1716;DHT22;855;48.824;9.220;2023-05-07T11:16:17;26.40;52.80
1716;DHT22;855;48.824;9.220;2023-05-07T11:18:47;26.40;52.30
1716;DHT22;855;48.824;9.220;2023-05-07T11:21:32;26.60;52.20
1716;DHT22;855;48.824;9.220;2023-05-07T11:24:00;26.70;51.70
1716;DHT22;855;48.824;9.220;2023-05-07T11:26:29;26.70;52.20
1716;DHT22;855;48.824;9.220;2023-05-07T11:28:57;26.80;52.20
1716;DHT22;855;48.824;9.220;2023-05-07T11:31:27;26.70;51.40
1716;DHT22;855;48.824;9.220;2023-05-07T11:33:55;26.40;52.10
1716;DHT22;855;48.824;9.220;2023-05-07T11:36:23;26.30;52.30
1716;DHT22;855;48.824;9.220;2023-05-07T11:38:52;26.10;53.30
1716;DHT22;855;48.824;9.220;2023-05-07T11:41:19;26.00;53.10
1716;DHT22;855;48.824;9.220;2023-05-07T11:43:55;25.90;53.20
1716;DHT22;855;48.824;9.220;2023-05-07T11:46:22;25.90;52.90
1716;DHT22;855;48.824;9.220;2023-05-07T11:48:49;25.90;52.90
1716;DHT22;855;48.824;9.220;2023-05-07T11:51:19;26.00;51.70
1716;DHT22;855;48.824;9.220;2023-05-07T11:53:46;26.00;52.40
1716;DHT22;855;48.824;9.220;2023-05-07T11:56:16;26.10;51.90
1716;DHT22;855;48.824;9.220;2023-05-07T11:58:45;26.00;51.20
1716;DHT22;855;48.824;9.220;2023-05-07T12:01:13;25.70;53.40
1716;DHT22;855;48.824;9.220;2023-05-07T12:03:42;25.70;52.40
1716;DHT22;855;48.824;9.220;2023-05-07T12:06:09;25.60;53.80
1716;DHT22;855;48.824;9.220;2023-05-07T12:08:37;25.80;52.90
1716;DHT22;855;48.824;9.220;2023-05-07T12:11:07;25.90;53.20
1716;DHT22;855;48.824;9.220;2023-05-07T12:13:35;25.70;52.40
1716;DHT22;855;48.824;9.220;2023-05-07T12:16:02;25.60;52.30
1716;DHT22;855;48.824;9.220;2023-05-07T12:18:30;25.60;53.10
1716;DHT22;855;48.824;9.220;2023-05-07T12:20:58;25.50;52.90
1716;DHT22;855;48.824;9.220;2023-05-07T12:23:25;25.70;53.60
1716;DHT22;855;48.824;9.220;2023-05-07T12:25:53;25.70;52.30
1716;DHT22;855;48.824;9.220;2023-05-07T12:28:20;25.80;51.70
1716;DHT22;855;48.824;9.220;2023-05-07T12:30:50;25.90;52.30
1716;DHT22;855;48.824;9.220;2023-05-07T12:33:18;25.70;51.10
1716;DHT22;855;48.824;9.220;2023-05-07T12:35:47;25.60;52.60
1716;DHT22;855;48.824;9.220;2023-05-07T12:38:16;25.70;52.40
1716;DHT22;855;48.824;9.220;2023-05-07T12:40:46;25.80;53.70
1716;DHT22;855;48.824;9.220;2023-05-07T12:43:16;25.90;54.50
1716;DHT22;855;48.824;9.220;2023-05-07T12:45:44;25.90;55.20
1716;DHT22;855;48.824;9.220;2023-05-07T12:48:12;25.60;58.00
1716;DHT22;855;48.824;9.220;2023-05-07T12:50:40;25.20;60.60
1716;DHT22;855;48.824;9.220;2023-05-07T12:53:07;24.70;61.60
1716;DHT22;855;48.824;9.220;2023-05-07T12:55:42;24.40;62.60
1716;DHT22;855;48.824;9.220;2023-05-07T12:58:15;24.10;65.60
1716;DHT22;855;48.824;9.220;2023-05-07T13:00:42;24.00;66.50
1716;DHT22;855;48.824;9.220;2023-05-07T13:03:10;23.70;70.10
1716;DHT22;855;48.824;9.220;2023-05-07T13:05:38;23.20;72.20
1716;DHT22;855;48.824;9.220;2023-05-07T13:08:05;22.90;73.90
1716;DHT22;855;48.824;9.220;2023-05-07T13:10:35;22.80;74.20
1716;DHT22;855;48.824;9.220;2023-05-07T13:13:01;22.60;72.60
1716;DHT22;855;48.824;9.220;2023-05-07T13:15:29;22.40;71.30
1716;DHT22;855;48.824;9.220;2023-05-07T13:17:56;22.10;72.90
1716;DHT22;855;48.824;9.220;2023-05-07T13:20:23;21.40;74.20
1716;DHT22;855;48.824;9.220;2023-05-07T13:22:51;21.40;74.60
1716;DHT22;855;48.824;9.220;2023-05-07T13:25:18;21.20;75.10
1716;DHT22;855;48.824;9.220;2023-05-07T13:27:45;20.60;78.00
1716;DHT22;855;48.824;9.220;2023-05-07T13:30:12;20.20;78.80
1716;DHT22;855;48.824;9.220;2023-05-07T13:32:39;19.70;80.70
1716;DHT22;855;48.824;9.220;2023-05-07T13:35:07;19.30;81.30
1716;DHT22;855;48.824;9.220;2023-05-07T13:37:33;19.20;83.30
1716;DHT22;855;48.824;9.220;2023-05-07T13:40:02;18.90;84.40
1716;DHT22;855;48.824;9.220;2023-05-07T13:42:29;18.70;85.20
1716;DHT22;855;48.824;9.220;2023-05-07T13:44:56;18.70;82.90
1716;DHT22;855;48.824;9.220;2023-05-07T13:47:23;18.60;85.70
1716;DHT22;855;48.824;9.220;2023-05-07T13:49:50;18.40;83.00
1716;DHT22;855;48.824;9.220;2023-05-07T13:52:17;18.40;84.10
1716;DHT22;855;48.824;9.220;2023-05-07T13:54:44;18.40;84.60
1716;DHT22;855;48.824;9.220;2023-05-07T13:57:12;18.50;85.80
1716;DHT22;855;48.824;9.220;2023-05-07T13:59:39;18.60;85.30
1716;DHT22;855;48.824;9.220;2023-05-07T14:02:06;18.50;86.60
1716;DHT22;855;48.824;9.220;2023-05-07T14:04:33;18.60;85.00
1716;DHT22;855;48.824;9.220;2023-05-07T14:07:00;18.40;83.30
1716;DHT22;855;48.824;9.220;2023-05-07T14:09:27;18.40;83.60
1716;DHT22;855;48.824;9.220;2023-05-07T14:11:53;18.50;84.80
1716;DHT22;855;48.824;9.220;2023-05-07T14:14:22;18.70;86.10
1716;DHT22;855;48.824;9.220;2023-05-07T14:16:48;18.80;88.10
1716;DHT22;855;48.824;9.220;2023-05-07T14:19:15;18.60;88.30
1716;DHT22;855;48.824;9.220;2023-05-07T14:21:42;18.50;87.50
1716;DHT22;855;48.824;9.220;2023-05-07T14:24:09;18.30;88.70
1716;DHT22;855;48.824;9.220;2023-05-07T14:26:36;18.30;88.90
1716;DHT22;855;48.824;9.220;2023-05-07T14:29:03;18.30;90.10
1716;DHT22;855;48.824;9.220;2023-05-07T14:31:31;18.30;90.20
1716;DHT22;855;48.824;9.220;2023-05-07T14:33:58;18.30;90.50
1716;DHT22;855;48.824;9.220;2023-05-07T14:36:25;18.30;90.50
1716;DHT22;855;48.824;9.220;2023-05-07T14:38:52;18.40;90.60
1716;DHT22;855;48.824;9.220;2023-05-07T14:41:20;18.30;90.50
1716;DHT22;855;48.824;9.220;2023-05-07T14:43:47;18.30;90.60
1716;DHT22;855;48.824;9.220;2023-05-07T14:46:15;18.50;90.30
1716;DHT22;855;48.824;9.220;2023-05-07T14:48:44;18.60;90.50
1716;DHT22;855;48.824;9.220;2023-05-07T14:51:13;18.70;90.10
1716;DHT22;855;48.824;9.220;2023-05-07T14:53:41;18.60;89.30
1716;DHT22;855;48.824;9.220;2023-05-07T14:56:08;18.70;89.10
1716;DHT22;855;48.824;9.220;2023-05-07T14:58:35;18.70;89.30
1716;DHT22;855;48.824;9.220;2023-05-07T15:01:03;18.80;89.10
1716;DHT22;855;48.824;9.220;2023-05-07T15:03:30;18.60;89.10
1716;DHT22;855;48.824;9.220;2023-05-07T15:05:58;18.50;90.20
1716;DHT22;855;48.824;9.220;2023-05-07T15:08:25;18.40;88.90
1716;DHT22;855;48.824;9.220;2023-05-07T15:10:52;18.30;89.00
1716;DHT22;855;48.824;9.220;2023-05-07T15:13:20;18.30;88.70
1716;DHT22;855;48.824;9.220;2023-05-07T15:15:47;18.40;88.70
1716;DHT22;855;48.824;9.220;2023-05-07T15:18:15;18.50;89.40
1716;DHT22;855;48.824;9.220;2023-05-07T15:20:42;18.40;89.70
1716;DHT22;855;48.824;9.220;2023-05-07T15:23:10;18.30;90.30
1716;DHT22;855;48.824;9.220;2023-05-07T15:25:39;18.20;90.80
1716;DHT22;855;48.824;9.220;2023-05-07T15:28:06;18.20;90.80
1716;DHT22;855;48.824;9.220;2023-05-07T15:30:33;18.40;90.60
1716;DHT22;855;48.824;9.220;2023-05-07T15:33:01;18.50;90.30
1716;DHT22;855;48.824;9.220;2023-05-07T15:35:28;18.70;90.90
1716;DHT22;855;48.824;9.220;2023-05-07T15:37:55;18.80;91.40
1716;DHT22;855;48.824;9.220;2023-05-07T15:40:24;18.80;91.70
1716;DHT22;855;48.824;9.220;2023-05-07T15:42:54;18.90;91.70
1716;DHT22;855;48.824;9.220;2023-05-07T15:45:22;19.00;91.00
1716;DHT22;855;48.824;9.220;2023-05-07T15:47:49;19.30;90.60
1716;DHT22;855;48.824;9.220;2023-05-07T15:50:16;19.40;90.10
1716;DHT22;855;48.824;9.220;2023-05-07T15:52:43;19.40;89.10
1716;DHT22;855;48.824;9.220;2023-05-07T15:55:11;19.40;87.90
1716;DHT22;855;48.824;9.220;2023-05-07T15:57:39;19.40;87.70
1716;DHT22;855;48.824;9.220;2023-05-07T16:00:07;19.30;89.00
1716;DHT22;855;48.824;9.220;2023-05-07T16:02:37;19.30;88.30
1716;DHT22;855;48.824;9.220;2023-05-07T16:05:05;19.30;87.40
1716;DHT22;855;48.824;9.220;2023-05-07T16:07:33;19.30;86.60
1716;DHT22;855;48.824;9.220;2023-05-07T16:10:00;19.30;86.90
1716;DHT22;855;48.824;9.220;2023-05-07T16:12:27;19.30;87.30
1716;DHT22;855;48.824;9.220;2023-05-07T16:14:55;19.50;86.90
1716;DHT22;855;48.824;9.220;2023-05-07T16:17:22;19.60;87.40
1716;DHT22;855;48.824;9.220;2023-05-07T16:19:49;19.60;87.40
1716;DHT22;855;48.824;9.220;2023-05-07T16:22:16;19.60;88.10
1716;DHT22;855;48.824;9.220;2023-05-07T16:24:43;19.40;88.90